sensor_id;sensor_type;location;lat;lon;timestamp;pressure;altitude;pressure_sealevel;temperature;humidity
12987;BME280;58897;51.960;5.582;2024-01-30T00:01:53;102359.63;;;7.54;100.00
12987;BME280;58897;51.960;5.582;2024-01-30T00:04:20;102353.28;;;7.55;100.00
12987;BME280;58897;51.960;5.582;2024-01-30T00:06:47;102342.19;;;7.60;100.00
12987;BME280;58897;51.960;5.582;2024-01-30T00:09:13;102342.41;;;7.57;100.00
12987;BME280;58897;51.960;5.582;2024-01-30T00:11:40;102343.41;;;7.56;100.00
12987;BME280;58897;51.960;5.582;2024-01-30T00:14:07;102348.13;;;7.52;100.00
12987;BME280;58897;51.960;5.582;2024-01-30T00:16:33;102351.47;;;7.56;100.00
12987;BME280;58897;51.960;5.582;2024-01-30T00:19:00;102344.91;;;7.47;100.00
12987;BME280;58897;51.960;5.582;2024-01-30T00:21:28;102342.41;;;7.44;100.00
12987;BME280;58897;51.960;5.582;2024-01-30T00:23:55;102345.03;;;7.45;100.00
12987;BME280;58897;51.960;5.582;2024-01-30T00:26:21;102338.00;;;7.43;100.00
12987;BME280;58897;51.960;5.582;2024-01-30T00:28:48;102351.88;;;7.37;100.00
12987;BME280;58897;51.960;5.582;2024-01-30T00:31:15;102349.94;;;7.39;100.00
12987;BME280;58897;51.960;5.582;2024-01-30T00:33:42;102341.53;;;7.43;100.00
12987;BME280;58897;51.960;5.582;2024-01-30T00:36:09;102351.16;;;7.47;100.00
12987;BME280;58897;51.960;5.582;2024-01-30T00:38:37;102347.16;;;7.53;100.00
12987;BME280;58897;51.960;5.582;2024-01-30T00:41:04;102344.56;;;7.52;100.00
12987;BME280;58897;51.960;5.582;2024-01-30T00:43:31;102335.75;;;7.50;100.00
12987;BME280;58897;51.960;5.582;2024-01-30T00:45:58;102337.38;;;7.52;100.00
12987;BME280;58897;51.960;5.582;2024-01-30T00:48:25;102336.50;;;7.52;100.00
12987;BME280;58897;51.960;5.582;2024-01-30T00:50:52;102336.50;;;7.52;100.00
12987;BME280;58897;51.960;5.582;2024-01-30T00:53:19;102326.19;;;7.45;100.00
12987;BME280;58897;51.960;5.582;2024-01-30T00:55:46;102335.53;;;7.53;100.00
12987;BME280;58897;51.960;5.582;2024-01-30T00:58:12;102323.72;;;7.55;100.00
12987;BME280;58897;51.960;5.582;2024-01-30T01:00:39;102321.22;;;7.52;100.00
12987;BME280;58897;51.960;5.582;2024-01-30T01:03:06;102327.81;;;7.61;100.00
12987;BME280;58897;51.960;5.582;2024-01-30T01:05:32;102326.38;;;7.68;100.00
12987;BME280;58897;51.960;5.582;2024-01-30T01:07:59;102320.59;;;7.61;100.00
12987;BME280;58897;51.960;5.582;2024-01-30T01:10:26;102326.19;;;7.58;100.00
12987;BME280;58897;51.960;5.582;2024-01-30T01:12:54;102324.56;;;7.56;100.00
12987;BME280;58897;51.960;5.582;2024-01-30T01:15:20;102319.41;;;7.53;100.00
12987;BME280;58897;51.960;5.582;2024-01-30T01:17:47;102325.13;;;7.48;100.00
12987;BME280;58897;51.960;5.582;2024-01-30T01:20:14;102328.75;;;7.47;100.00
12987;BME280;58897;51.960;5.582;2024-01-30T01:22:40;102326.69;;;7.38;100.00
12987;BME280;58897;51.960;5.582;2024-01-30T01:25:08;102319.41;;;7.40;100.00
12987;BME280;58897;51.960;5.582;2024-01-30T01:27:37;102312.84;;;7.44;100.00
12987;BME280;58897;51.960;5.582;2024-01-30T01:30:11;102310.47;;;7.39;100.00
12987;BME280;58897;51.960;5.582;2024-01-30T01:32:40;102304.38;;;7.37;100.00
12987;BME280;58897;51.960;5.582;2024-01-30T01:35:15;102298.53;;;7.43;100.00
12987;BME280;58897;51.960;5.582;2024-01-30T01:37:43;102301.13;;;7.32;100.00
12987;BME280;58897;51.960;5.582;2024-01-30T01:40:09;102296.50;;;7.34;100.00
12987;BME280;58897;51.960;5.582;2024-01-30T01:42:36;102297.59;;;7.32;100.00
12987;BME280;58897;51.960;5.582;2024-01-30T01:45:03;102290.91;;;7.37;100.00
12987;BME280;58897;51.960;5.582;2024-01-30T01:47:30;102292.28;;;7.43;100.00
12987;BME280;58897;51.960;5.582;2024-01-30T01:49:57;102298.97;;;7.37;100.00
12987;BME280;58897;51.960;5.582;2024-01-30T01:52:24;102295.44;;;7.37;100.00
12987;BME280;58897;51.960;5.582;2024-01-30T01:54:51;102290.91;;;7.37;100.00
12987;BME280;58897;51.960;5.582;2024-01-30T01:57:17;102293.91;;;7.33;100.00
12987;BME280;58897;51.960;5.582;2024-01-30T01:59:44;102297.38;;;7.35;100.00
12987;BME280;58897;51.960;5.582;2024-01-30T02:02:12;102293.81;;;7.34;100.00
12987;BME280;58897;51.960;5.582;2024-01-30T02:04:42;102289.72;;;7.29;100.00
12987;BME280;58897;51.960;5.582;2024-01-30T02:07:09;102282.00;;;7.24;100.00
12987;BME280;58897;51.960;5.582;2024-01-30T02:09:36;102287.25;;;7.26;100.00
12987;BME280;58897;51.960;5.582;2024-01-30T02:12:03;102286.59;;;7.22;100.00
12987;BME280;58897;51.960;5.582;2024-01-30T02:14:30;102273.16;;;7.22;100.00
12987;BME280;58897;51.960;5.582;2024-01-30T02:16:57;102283.91;;;7.22;100.00
12987;BME280;58897;51.960;5.582;2024-01-30T02:19:23;102282.19;;;7.21;100.00
12987;BME280;58897;51.960;5.582;2024-01-30T02:21:51;102279.38;;;7.23;100.00
12987;BME280;58897;51.960;5.582;2024-01-30T02:24:18;102284.56;;;7.26;100.00
12987;BME280;58897;51.960;5.582;2024-01-30T02:26:45;102282.75;;;7.26;100.00
12987;BME280;58897;51.960;5.582;2024-01-30T02:29:12;102285.09;;;7.31;100.00
12987;BME280;58897;51.960;5.582;2024-01-30T02:31:38;102277.16;;;7.29;100.00
12987;BME280;58897;51.960;5.582;2024-01-30T02:34:05;102272.94;;;7.25;100.00
12987;BME280;58897;51.960;5.582;2024-01-30T02:36:32;102266.59;;;7.26;100.00
12987;BME280;58897;51.960;5.582;2024-01-30T02:38:59;102271.78;;;7.29;100.00
12987;BME280;58897;51.960;5.582;2024-01-30T02:41:25;102270.59;;;7.21;100.00
12987;BME280;58897;51.960;5.582;2024-01-30T02:43:52;102274.22;;;7.20;100.00
12987;BME280;58897;51.960;5.582;2024-01-30T02:46:19;102280.06;;;7.26;100.00
12987;BME280;58897;51.960;5.582;2024-01-30T02:48:46;102284.88;;;7.21;100.00
12987;BME280;58897;51.960;5.582;2024-01-30T02:51:13;102279.06;;;7.15;100.00
12987;BME280;58897;51.960;5.582;2024-01-30T02:53:39;102272.06;;;7.12;100.00
12987;BME280;58897;51.960;5.582;2024-01-30T02:56:06;102273.47;;;7.18;100.00
12987;BME280;58897;51.960;5.582;2024-01-30T02:58:36;102274.47;;;7.17;100.00
12987;BME280;58897;51.960;5.582;2024-01-30T03:01:03;102255.66;;;7.17;100.00
12987;BME280;58897;51.960;5.582;2024-01-30T03:03:30;102259.09;;;7.19;100.00
12987;BME280;58897;51.960;5.582;2024-01-30T03:05:57;102263.47;;;7.20;100.00
12987;BME280;58897;51.960;5.582;2024-01-30T03:08:23;102247.13;;;7.23;100.00
12987;BME280;58897;51.960;5.582;2024-01-30T03:10:50;102254.88;;;7.27;100.00
12987;BME280;58897;51.960;5.582;2024-01-30T03:13:17;102245.31;;;7.23;100.00
12987;BME280;58897;51.960;5.582;2024-01-30T03:15:44;102247.34;;;7.20;100.00
12987;BME280;58897;51.960;5.582;2024-01-30T03:18:11;102241.13;;;7.19;100.00
12987;BME280;58897;51.960;5.582;2024-01-30T03:20:37;102231.47;;;7.17;100.00
12987;BME280;58897;51.960;5.582;2024-01-30T03:23:05;102228.66;;;7.18;100.00
12987;BME280;58897;51.960;5.582;2024-01-30T03:25:34;102237.91;;;7.27;100.00
12987;BME280;58897;51.960;5.582;2024-01-30T03:28:00;102229.31;;;7.22;100.00
12987;BME280;58897;51.960;5.582;2024-01-30T03:30:27;102221.78;;;7.27;100.00
12987;BME280;58897;51.960;5.582;2024-01-30T03:32:54;102235.22;;;7.27;100.00
12987;BME280;58897;51.960;5.582;2024-01-30T03:35:21;102223.59;;;7.26;100.00
12987;BME280;58897;51.960;5.582;2024-01-30T03:37:47;102219.09;;;7.27;100.00
12987;BME280;58897;51.960;5.582;2024-01-30T03:40:14;102222.94;;;7.23;100.00
12987;BME280;58897;51.960;5.582;2024-01-30T03:42:41;102224.69;;;7.24;100.00
12987;BME280;58897;51.960;5.582;2024-01-30T03:45:08;102230.81;;;7.26;100.00
12987;BME280;58897;51.960;5.582;2024-01-30T03:47:35;102229.41;;;7.20;100.00
12987;BME280;58897;51.960;5.582;2024-01-30T03:50:02;102233.38;;;7.15;100.00
12987;BME280;58897;51.960;5.582;2024-01-30T03:52:29;102228.00;;;7.15;100.00
12987;BME280;58897;51.960;5.582;2024-01-30T03:54:56;102227.25;;;7.13;100.00
12987;BME280;58897;51.960;5.582;2024-01-30T03:57:22;102229.84;;;7.14;100.00
12987;BME280;58897;51.960;5.582;2024-01-30T03:59:49;102225.22;;;7.04;100.00
12987;BME280;58897;51.960;5.582;2024-01-30T04:02:16;102233.91;;;7.07;100.00
12987;BME280;58897;51.960;5.582;2024-01-30T04:04:44;102234.91;;;7.06;100.00
12987;BME280;58897;51.960;5.582;2024-01-30T04:07:11;102228.00;;;7.02;100.00
12987;BME280;58897;51.960;5.582;2024-01-30T04:09:38;102235.66;;;7.08;100.00
12987;BME280;58897;51.960;5.582;2024-01-30T04:12:05;102235.44;;;6.99;100.00
12987;BME280;58897;51.960;5.582;2024-01-30T04:14:32;102229.53;;;7.06;100.00
12987;BME280;58897;51.960;5.582;2024-01-30T04:16:59;102229.06;;;7.12;100.00
12987;BME280;58897;51.960;5.582;2024-01-30T04:19:26;102234.44;;;7.12;100.00
12987;BME280;58897;51.960;5.582;2024-01-30T04:21:52;102228.53;;;7.07;100.00
12987;BME280;58897;51.960;5.582;2024-01-30T04:24:19;102230.16;;;7.10;100.00
12987;BME280;58897;51.960;5.582;2024-01-30T04:26:45;102226.31;;;7.14;100.00
12987;BME280;58897;51.960;5.582;2024-01-30T04:29:12;102218.25;;;7.14;100.00
12987;BME280;58897;51.960;5.582;2024-01-30T04:31:39;102216.41;;;7.14;100.00
12987;BME280;58897;51.960;5.582;2024-01-30T04:34:05;102223.50;;;7.15;100.00
12987;BME280;58897;51.960;5.582;2024-01-30T04:36:32;102218.56;;;7.22;100.00
12987;BME280;58897;51.960;5.582;2024-01-30T04:39:01;102211.88;;;7.15;100.00
12987;BME280;58897;51.960;5.582;2024-01-30T04:41:27;102213.72;;;7.14;100.00
12987;BME280;58897;51.960;5.582;2024-01-30T04:43:57;102209.50;;;7.23;100.00
12987;BME280;58897;51.960;5.582;2024-01-30T04:46:24;102205.97;;;7.22;100.00
12987;BME280;58897;51.960;5.582;2024-01-30T04:48:51;102208.56;;;7.24;100.00
12987;BME280;58897;51.960;5.582;2024-01-30T04:51:18;102205.97;;;7.22;100.00
12987;BME280;58897;51.960;5.582;2024-01-30T04:53:45;102202.75;;;7.30;100.00
12987;BME280;58897;51.960;5.582;2024-01-30T04:56:11;102196.28;;;7.32;100.00
12987;BME280;58897;51.960;5.582;2024-01-30T04:58:38;102200.16;;;7.28;100.00
12987;BME280;58897;51.960;5.582;2024-01-30T05:01:04;102206.28;;;7.30;100.00
12987;BME280;58897;51.960;5.582;2024-01-30T05:03:33;102210.03;;;7.28;100.00
12987;BME280;58897;51.960;5.582;2024-01-30T05:06:00;102206.72;;;7.24;100.00
12987;BME280;58897;51.960;5.582;2024-01-30T05:08:28;102204.13;;;7.23;100.00
12987;BME280;58897;51.960;5.582;2024-01-30T05:10:55;102206.81;;;7.23;100.00
12987;BME280;58897;51.960;5.582;2024-01-30T05:13:22;102212.75;;;7.15;100.00
12987;BME280;58897;51.960;5.582;2024-01-30T05:15:48;102211.03;;;7.14;100.00
12987;BME280;58897;51.960;5.582;2024-01-30T05:18:15;102208.44;;;7.13;100.00
12987;BME280;58897;51.960;5.582;2024-01-30T05:20:42;102210.19;;;7.14;100.00
12987;BME280;58897;51.960;5.582;2024-01-30T05:23:08;102202.75;;;7.17;100.00
12987;BME280;58897;51.960;5.582;2024-01-30T05:25:35;102215.63;;;7.25;100.00
12987;BME280;58897;51.960;5.582;2024-01-30T05:28:02;102205.34;;;7.19;100.00
12987;BME280;58897;51.960;5.582;2024-01-30T05:30:29;102207.47;;;7.26;100.00
12987;BME280;58897;51.960;5.582;2024-01-30T05:32:56;102199.41;;;7.26;100.00
12987;BME280;58897;51.960;5.582;2024-01-30T05:35:22;102202.84;;;7.28;100.00
12987;BME280;58897;51.960;5.582;2024-01-30T05:37:49;102201.97;;;7.28;100.00
12987;BME280;58897;51.960;5.582;2024-01-30T05:40:16;102192.09;;;7.28;100.00
12987;BME280;58897;51.960;5.582;2024-01-30T05:42:43;102188.31;;;7.31;100.00
12987;BME280;58897;51.960;5.582;2024-01-30T05:45:10;102193.50;;;7.34;100.00
12987;BME280;58897;51.960;5.582;2024-01-30T05:47:36;102188.84;;;7.36;100.00
12987;BME280;58897;51.960;5.582;2024-01-30T05:50:03;102188.50;;;7.40;100.00
12987;BME280;58897;51.960;5.582;2024-01-30T05:52:30;102204.03;;;7.37;100.00
12987;BME280;58897;51.960;5.582;2024-01-30T05:54:56;102206.06;;;7.33;100.00
12987;BME280;58897;51.960;5.582;2024-01-30T05:57:23;102208.41;;;7.38;100.00
12987;BME280;58897;51.960;5.582;2024-01-30T05:59:50;102206.78;;;7.61;100.00
12987;BME280;58897;51.960;5.582;2024-01-30T06:02:18;102198.66;;;7.37;100.00
12987;BME280;58897;51.960;5.582;2024-01-30T06:04:45;102210.03;;;7.40;100.00
12987;BME280;58897;51.960;5.582;2024-01-30T06:07:12;102197.44;;;7.41;100.00
12987;BME280;58897;51.960;5.582;2024-01-30T06:09:38;102203.56;;;7.43;100.00
12987;BME280;58897;51.960;5.582;2024-01-30T06:12:06;102198.19;;;7.43;100.00
12987;BME280;58897;51.960;5.582;2024-01-30T06:14:36;102204.34;;;7.45;100.00
12987;BME280;58897;51.960;5.582;2024-01-30T06:17:03;102200.56;;;7.47;100.00
12987;BME280;58897;51.960;5.582;2024-01-30T06:19:34;102210.47;;;7.47;100.00
12987;BME280;58897;51.960;5.582;2024-01-30T06:22:02;102212.28;;;7.46;100.00
12987;BME280;58897;51.960;5.582;2024-01-30T06:24:28;102216.69;;;7.47;100.00
12987;BME280;58897;51.960;5.582;2024-01-30T06:26:55;102215.97;;;7.45;100.00
12987;BME280;58897;51.960;5.582;2024-01-30T06:29:22;102216.16;;;7.42;100.00
12987;BME280;58897;51.960;5.582;2024-01-30T06:31:51;102218.88;;;7.42;100.00
12987;BME280;58897;51.960;5.582;2024-01-30T06:34:18;102219.94;;;7.40;100.00
12987;BME280;58897;51.960;5.582;2024-01-30T06:36:45;102225.31;;;7.40;100.00
12987;BME280;58897;51.960;5.582;2024-01-30T06:39:12;102214.44;;;7.41;100.00
12987;BME280;58897;51.960;5.582;2024-01-30T06:41:39;102213.16;;;7.47;100.00
12987;BME280;58897;51.960;5.582;2024-01-30T06:44:06;102204.34;;;7.45;100.00
12987;BME280;58897;51.960;5.582;2024-01-30T06:46:35;102220.34;;;7.46;100.00
12987;BME280;58897;51.960;5.582;2024-01-30T06:49:02;102228.75;;;7.42;100.00
12987;BME280;58897;51.960;5.582;2024-01-30T06:51:29;102229.63;;;7.42;100.00
12987;BME280;58897;51.960;5.582;2024-01-30T06:53:55;102216.47;;;7.38;100.00
12987;BME280;58897;51.960;5.582;2024-01-30T06:56:25;102219.59;;;7.44;100.00
12987;BME280;58897;51.960;5.582;2024-01-30T06:58:52;102219.25;;;7.49;100.00
12987;BME280;58897;51.960;5.582;2024-01-30T07:01:18;102220.13;;;7.50;100.00
12987;BME280;58897;51.960;5.582;2024-01-30T07:03:46;102217.13;;;7.41;100.00
12987;BME280;58897;51.960;5.582;2024-01-30T07:06:13;102224.25;;;7.42;100.00
12987;BME280;58897;51.960;5.582;2024-01-30T07:08:40;102236.03;;;7.53;100.00
12987;BME280;58897;51.960;5.582;2024-01-30T07:11:06;102224.13;;;7.44;100.00
12987;BME280;58897;51.960;5.582;2024-01-30T07:13:34;102249.72;;;7.50;100.00
12987;BME280;58897;51.960;5.582;2024-01-30T07:16:01;102253.59;;;7.45;100.00
12987;BME280;58897;51.960;5.582;2024-01-30T07:18:28;102246.28;;;7.47;100.00
12987;BME280;58897;51.960;5.582;2024-01-30T07:20:55;102224.44;;;7.52;100.00
12987;BME280;58897;51.960;5.582;2024-01-30T07:23:22;102244.53;;;7.46;100.00
12987;BME280;58897;51.960;5.582;2024-01-30T07:25:49;102243.13;;;7.54;100.00
12987;BME280;58897;51.960;5.582;2024-01-30T07:28:19;102241.53;;;7.51;100.00
12987;BME280;58897;51.960;5.582;2024-01-30T07:30:49;102247.88;;;7.50;100.00
12987;BME280;58897;51.960;5.582;2024-01-30T07:33:18;102236.13;;;7.51;100.00
12987;BME280;58897;51.960;5.582;2024-01-30T07:35:45;102244.84;;;7.55;100.00
12987;BME280;58897;51.960;5.582;2024-01-30T07:38:13;102250.69;;;7.61;100.00
12987;BME280;58897;51.960;5.582;2024-01-30T07:40:40;102252.28;;;7.64;100.00
12987;BME280;58897;51.960;5.582;2024-01-30T07:43:11;102263.66;;;7.67;100.00
12987;BME280;58897;51.960;5.582;2024-01-30T07:45:40;102258.81;;;7.72;100.00
12987;BME280;58897;51.960;5.582;2024-01-30T07:48:11;102250.63;;;7.74;100.00
12987;BME280;58897;51.960;5.582;2024-01-30T07:50:38;102259.25;;;7.79;100.00
12987;BME280;58897;51.960;5.582;2024-01-30T07:53:04;102263.19;;;7.86;100.00
12987;BME280;58897;51.960;5.582;2024-01-30T07:55:34;102254.69;;;7.92;100.00
12987;BME280;58897;51.960;5.582;2024-01-30T07:58:02;102243.69;;;7.95;100.00
12987;BME280;58897;51.960;5.582;2024-01-30T08:00:31;102260.38;;;8.00;100.00
12987;BME280;58897;51.960;5.582;2024-01-30T08:02:58;102271.88;;;8.02;100.00
12987;BME280;58897;51.960;5.582;2024-01-30T08:05:29;102270.25;;;7.99;100.00
12987;BME280;58897;51.960;5.582;2024-01-30T08:07:56;102281.84;;;8.13;100.00
12987;BME280;58897;51.960;5.582;2024-01-30T08:10:24;102274.97;;;8.08;100.00
12987;BME280;58897;51.960;5.582;2024-01-30T08:12:51;102282.59;;;8.15;100.00
12987;BME280;58897;51.960;5.582;2024-01-30T08:15:21;102280.41;;;8.20;100.00
12987;BME280;58897;51.960;5.582;2024-01-30T08:17:48;102272.25;;;8.21;100.00
12987;BME280;58897;51.960;5.582;2024-01-30T08:20:16;102270.50;;;8.20;100.00
12987;BME280;58897;51.960;5.582;2024-01-30T08:22:43;102275.56;;;8.25;100.00
12987;BME280;58897;51.960;5.582;2024-01-30T08:25:15;102281.63;;;8.28;100.00
12987;BME280;58897;51.960;5.582;2024-01-30T08:27:42;102279.78;;;8.29;100.00
12987;BME280;58897;51.960;5.582;2024-01-30T08:30:09;102268.16;;;8.28;100.00
12987;BME280;58897;51.960;5.582;2024-01-30T08:32:43;102263.16;;;8.35;100.00
12987;BME280;58897;51.960;5.582;2024-01-30T08:35:11;102264.97;;;8.34;100.00
12987;BME280;58897;51.960;5.582;2024-01-30T08:37:40;102273.81;;;8.36;100.00
12987;BME280;58897;51.960;5.582;2024-01-30T08:40:07;102269.69;;;8.43;100.00
12987;BME280;58897;51.960;5.582;2024-01-30T08:42:39;102280.34;;;8.45;100.00
12987;BME280;58897;51.960;5.582;2024-01-30T08:45:06;102273.13;;;8.45;100.00
12987;BME280;58897;51.960;5.582;2024-01-30T08:47:36;102272.03;;;8.48;100.00
12987;BME280;58897;51.960;5.582;2024-01-30T08:50:05;102275.81;;;8.45;100.00
12987;BME280;58897;51.960;5.582;2024-01-30T08:52:41;102277.19;;;8.51;100.00
12987;BME280;58897;51.960;5.582;2024-01-30T08:55:11;102274.72;;;8.48;100.00
12987;BME280;58897;51.960;5.582;2024-01-30T08:57:38;102276.00;;;8.55;100.00
12987;BME280;58897;51.960;5.582;2024-01-30T09:00:06;102264.41;;;8.65;100.00
12987;BME280;58897;51.960;5.582;2024-01-30T09:02:35;102278.25;;;8.72;100.00
12987;BME280;58897;51.960;5.582;2024-01-30T09:05:08;102274.47;;;8.75;100.00
12987;BME280;58897;51.960;5.582;2024-01-30T09:07:35;102276.06;;;8.77;100.00
12987;BME280;58897;51.960;5.582;2024-01-30T09:10:05;102277.69;;;8.80;100.00
12987;BME280;58897;51.960;5.582;2024-01-30T09:12:34;102278.53;;;8.80;100.00
12987;BME280;58897;51.960;5.582;2024-01-30T09:15:02;102280.38;;;8.80;100.00
12987;BME280;58897;51.960;5.582;2024-01-30T09:17:29;102288.22;;;8.83;100.00
12987;BME280;58897;51.960;5.582;2024-01-30T09:19:57;102289.81;;;8.85;100.00
12987;BME280;58897;51.960;5.582;2024-01-30T09:22:27;102298.66;;;8.87;100.00
12987;BME280;58897;51.960;5.582;2024-01-30T09:24:54;102297.19;;;8.94;100.00
12987;BME280;58897;51.960;5.582;2024-01-30T09:27:22;102290.97;;;9.05;100.00
12987;BME280;58897;51.960;5.582;2024-01-30T09:29:49;102296.13;;;9.08;100.00
12987;BME280;58897;51.960;5.582;2024-01-30T09:32:17;102287.72;;;9.12;100.00
12987;BME280;58897;51.960;5.582;2024-01-30T09:34:44;102292.41;;;9.32;100.00
12987;BME280;58897;51.960;5.582;2024-01-30T09:37:12;102283.31;;;9.33;100.00
12987;BME280;58897;51.960;5.582;2024-01-30T09:39:42;102303.44;;;9.41;100.00
12987;BME280;58897;51.960;5.582;2024-01-30T09:44:54;102294.97;;;9.34;100.00
12987;BME280;58897;51.960;5.582;2024-01-30T09:47:22;102295.59;;;9.38;100.00
12987;BME280;58897;51.960;5.582;2024-01-30T09:49:53;102296.81;;;9.45;100.00
12987;BME280;58897;51.960;5.582;2024-01-30T09:52:21;102302.34;;;9.43;100.00
12987;BME280;58897;51.960;5.582;2024-01-30T09:54:51;102300.88;;;9.50;100.00
12987;BME280;58897;51.960;5.582;2024-01-30T09:57:20;102298.19;;;9.50;100.00
12987;BME280;58897;51.960;5.582;2024-01-30T09:59:48;102298.19;;;9.50;100.00
12987;BME280;58897;51.960;5.582;2024-01-30T10:02:16;102306.03;;;9.53;100.00
12987;BME280;58897;51.960;5.582;2024-01-30T10:04:47;102301.50;;;9.54;100.00
12987;BME280;58897;51.960;5.582;2024-01-30T10:07:15;102308.13;;;9.61;100.00
12987;BME280;58897;51.960;5.582;2024-01-30T10:09:43;102315.97;;;9.64;100.00
12987;BME280;58897;51.960;5.582;2024-01-30T10:12:10;102313.03;;;9.67;100.00
12987;BME280;58897;51.960;5.582;2024-01-30T10:14:42;102316.97;;;9.74;100.00
12987;BME280;58897;51.960;5.582;2024-01-30T10:17:11;102311.56;;;9.74;100.00
12987;BME280;58897;51.960;5.582;2024-01-30T10:19:53;102309.50;;;9.77;100.00
12987;BME280;58897;51.960;5.582;2024-01-30T10:22:21;102317.31;;;9.80;100.00
12987;BME280;58897;51.960;5.582;2024-01-30T10:24:48;102311.56;;;9.85;100.00
12987;BME280;58897;51.960;5.582;2024-01-30T10:27:26;102310.31;;;9.89;100.00
12987;BME280;58897;51.960;5.582;2024-01-30T10:29:54;102305.16;;;9.97;100.00
12987;BME280;58897;51.960;5.582;2024-01-30T10:32:27;102312.53;;;10.06;100.00
12987;BME280;58897;51.960;5.582;2024-01-30T10:35:01;102310.44;;;10.10;100.00
12987;BME280;58897;51.960;5.582;2024-01-30T10:37:30;102295.75;;;10.14;100.00
12987;BME280;58897;51.960;5.582;2024-01-30T10:40:04;102308.25;;;10.15;100.00
12987;BME280;58897;51.960;5.582;2024-01-30T10:42:42;102302.34;;;10.21;100.00
12987;BME280;58897;51.960;5.582;2024-01-30T10:45:10;102299.75;;;10.30;100.00
12987;BME280;58897;51.960;5.582;2024-01-30T10:47:53;102295.66;;;10.47;100.00
12987;BME280;58897;51.960;5.582;2024-01-30T10:50:24;102284.75;;;10.69;100.00
12987;BME280;58897;51.960;5.582;2024-01-30T10:52:52;102283.94;;;10.89;100.00
12987;BME280;58897;51.960;5.582;2024-01-30T10:55:21;102289.75;;;11.77;100.00
12987;BME280;58897;51.960;5.582;2024-01-30T10:57:48;102296.97;;;11.97;100.00
12987;BME280;58897;51.960;5.582;2024-01-30T11:00:16;102300.44;;;11.78;100.00
12987;BME280;58897;51.960;5.582;2024-01-30T11:02:45;102297.53;;;11.91;100.00
12987;BME280;58897;51.960;5.582;2024-01-30T11:05:12;102298.41;;;11.50;100.00
12987;BME280;58897;51.960;5.582;2024-01-30T11:07:40;102297.03;;;11.56;100.00
12987;BME280;58897;51.960;5.582;2024-01-30T11:10:11;102304.22;;;11.15;100.00
12987;BME280;58897;51.960;5.582;2024-01-30T11:12:42;102307.47;;;10.98;100.00
12987;BME280;58897;51.960;5.582;2024-01-30T11:15:13;102300.28;;;10.88;100.00
12987;BME280;58897;51.960;5.582;2024-01-30T11:18:01;102309.97;;;10.90;100.00
12987;BME280;58897;51.960;5.582;2024-01-30T11:20:30;102313.59;;;10.80;100.00
12987;BME280;58897;51.960;5.582;2024-01-30T11:23:03;102309.28;;;10.77;100.00
12987;BME280;58897;51.960;5.582;2024-01-30T11:25:33;102293.81;;;10.79;100.00
12987;BME280;58897;51.960;5.582;2024-01-30T11:28:12;102310.22;;;10.87;100.00
12987;BME280;58897;51.960;5.582;2024-01-30T11:30:40;102304.81;;;10.87;100.00
12987;BME280;58897;51.960;5.582;2024-01-30T11:33:12;102300.94;;;11.42;100.00
12987;BME280;58897;51.960;5.582;2024-01-30T11:35:44;102298.91;;;11.35;100.00
12987;BME280;58897;51.960;5.582;2024-01-30T11:38:16;102297.78;;;10.96;100.00
12987;BME280;58897;51.960;5.582;2024-01-30T11:40:43;102307.38;;;11.00;100.00
12987;BME280;58897;51.960;5.582;2024-01-30T11:43:11;102305.97;;;11.05;100.00
12987;BME280;58897;51.960;5.582;2024-01-30T11:45:39;102308.34;;;11.20;100.00
12987;BME280;58897;51.960;5.582;2024-01-30T11:48:08;102302.94;;;11.20;100.00
12987;BME280;58897;51.960;5.582;2024-01-30T11:50:39;102308.50;;;11.18;100.00
12987;BME280;58897;51.960;5.582;2024-01-30T11:53:08;102305.19;;;10.94;100.00
12987;BME280;58897;51.960;5.582;2024-01-30T11:55:35;102310.41;;;10.75;100.00
12987;BME280;58897;51.960;5.582;2024-01-30T11:58:33;102306.22;;;10.50;100.00
12987;BME280;58897;51.960;5.582;2024-01-30T12:01:03;102326.25;;;10.47;100.00
12987;BME280;58897;51.960;5.582;2024-01-30T12:03:30;102322.91;;;10.44;100.00
12987;BME280;58897;51.960;5.582;2024-01-30T12:05:57;102324.28;;;10.38;100.00
12987;BME280;58897;51.960;5.582;2024-01-30T12:08:27;102317.44;;;10.34;100.00
12987;BME280;58897;51.960;5.582;2024-01-30T12:10:56;102321.84;;;10.35;100.00
12987;BME280;58897;51.960;5.582;2024-01-30T12:13:25;102330.69;;;10.37;100.00
12987;BME280;58897;51.960;5.582;2024-01-30T12:15:58;102332.63;;;10.46;100.00
12987;BME280;58897;51.960;5.582;2024-01-30T12:18:25;102347.50;;;10.30;100.00
12987;BME280;58897;51.960;5.582;2024-01-30T12:21:01;102351.34;;;10.16;100.00
12987;BME280;58897;51.960;5.582;2024-01-30T12:23:28;102353.53;;;10.11;100.00
12987;BME280;58897;51.960;5.582;2024-01-30T12:25:58;102357.44;;;10.07;100.00
12987;BME280;58897;51.960;5.582;2024-01-30T12:28:36;102360.50;;;10.03;100.00
12987;BME280;58897;51.960;5.582;2024-01-30T12:31:05;102360.41;;;9.93;100.00
12987;BME280;58897;51.960;5.582;2024-01-30T12:33:32;102376.81;;;10.01;100.00
12987;BME280;58897;51.960;5.582;2024-01-30T12:36:04;102370.22;;;10.05;100.00
12987;BME280;58897;51.960;5.582;2024-01-30T12:38:31;102369.72;;;10.22;100.00
12987;BME280;58897;51.960;5.582;2024-01-30T12:40:58;102379.19;;;10.17;100.00
12987;BME280;58897;51.960;5.582;2024-01-30T12:43:25;102375.03;;;10.24;100.00
12987;BME280;58897;51.960;5.582;2024-01-30T12:46:04;102385.59;;;10.27;100.00
12987;BME280;58897;51.960;5.582;2024-01-30T12:48:31;102379.31;;;10.15;100.00
12987;BME280;58897;51.960;5.582;2024-01-30T12:50:58;102390.59;;;10.20;100.00
12987;BME280;58897;51.960;5.582;2024-01-30T12:53:25;102385.94;;;10.11;100.00
12987;BME280;58897;51.960;5.582;2024-01-30T12:55:52;102382.50;;;10.20;100.00